createdAt,value
2023-07-24T00:00:00.393Z,19.58
2023-07-24T00:00:59.658Z,19.76
2023-07-24T00:01:59.631Z,19.83
2023-07-24T00:02:59.672Z,19.91
2023-07-24T00:03:59.659Z,19.94
2023-07-24T00:04:59.587Z,19.98
2023-07-24T00:05:59.591Z,20.05
2023-07-24T00:06:59.586Z,20.10
2023-07-24T00:07:59.568Z,20.14
2023-07-24T00:08:59.558Z,20.18
2023-07-24T00:09:59.547Z,20.23
2023-07-24T00:10:59.528Z,20.32
2023-07-24T00:11:59.519Z,20.43
2023-07-24T00:12:59.506Z,20.55
2023-07-24T00:13:59.494Z,20.64
2023-07-24T00:14:59.475Z,20.66
2023-07-24T00:15:59.487Z,20.66
2023-07-24T00:16:59.496Z,20.64
2023-07-24T00:17:59.480Z,20.61
2023-07-24T00:18:59.456Z,20.57
2023-07-24T00:19:59.442Z,20.52
2023-07-24T00:20:59.442Z,20.48
2023-07-24T00:21:59.424Z,20.42
2023-07-24T00:22:59.394Z,20.54
2023-07-24T00:23:59.396Z,20.55
2023-07-24T00:24:59.375Z,20.55
2023-07-24T00:25:59.385Z,20.58
2023-07-24T00:26:59.351Z,20.55
2023-07-24T00:27:59.349Z,20.52
2023-07-24T00:28:59.325Z,20.48
2023-07-24T00:29:59.322Z,20.41
2023-07-24T00:30:59.342Z,20.35
2023-07-24T00:31:59.318Z,20.28
2023-07-24T00:32:59.359Z,20.31
2023-07-24T00:33:59.298Z,20.28
2023-07-24T00:34:59.269Z,20.28
2023-07-24T00:36:00.077Z,20.23
2023-07-24T00:36:59.267Z,20.21
2023-07-24T00:37:59.244Z,20.20
2023-07-24T00:38:59.252Z,20.17
2023-07-24T00:39:59.217Z,20.16
2023-07-24T00:40:59.195Z,20.14
2023-07-24T00:41:59.305Z,20.08
2023-07-24T00:42:59.195Z,20.03
2023-07-24T00:43:59.181Z,20.02
2023-07-24T00:44:59.162Z,19.98
2023-07-24T00:45:59.150Z,19.98
2023-07-24T00:46:59.246Z,19.95
2023-07-24T00:47:59.156Z,19.96
2023-07-24T00:48:59.138Z,19.98
2023-07-24T00:49:59.115Z,19.96
2023-07-24T00:50:59.109Z,19.98
2023-07-24T00:51:59.102Z,19.98
2023-07-24T00:52:59.086Z,20.01
2023-07-24T00:53:59.060Z,20.02
2023-07-24T00:54:59.057Z,20.01
2023-07-24T00:55:59.051Z,20.03
2023-07-24T00:56:59.036Z,20.01
2023-07-24T00:57:59.040Z,19.99
2023-07-24T00:58:59.024Z,20.01
2023-07-24T00:59:59.007Z,20.01
2023-07-24T01:00:59.013Z,20.01
2023-07-24T01:01:58.984Z,20.02
2023-07-24T01:02:59.049Z,20.03
2023-07-24T01:03:58.961Z,20.08
2023-07-24T01:04:59.761Z,20.10
2023-07-24T01:05:58.941Z,20.11
2023-07-24T01:06:58.920Z,20.13
2023-07-24T01:07:58.927Z,20.14
2023-07-24T01:08:59.470Z,20.14
2023-07-24T01:09:58.903Z,20.14
2023-07-24T01:10:58.883Z,20.11
2023-07-24T01:11:58.876Z,20.14
2023-07-24T01:12:58.862Z,20.11
2023-07-24T01:13:59.658Z,20.11
2023-07-24T01:14:58.873Z,20.08
2023-07-24T01:15:58.848Z,20.02
2023-07-24T01:16:58.859Z,19.99
2023-07-24T01:17:58.863Z,20.10
2023-07-24T01:18:58.794Z,20.39
2023-07-24T01:19:58.792Z,20.62
2023-07-24T01:20:58.795Z,20.73
2023-07-24T01:21:58.769Z,20.80
2023-07-24T01:22:58.754Z,20.82
2023-07-24T01:23:58.749Z,20.77
2023-07-24T01:24:58.727Z,20.76
2023-07-24T01:25:59.188Z,20.74
2023-07-24T01:26:58.713Z,20.72
2023-07-24T01:27:58.718Z,20.70
2023-07-24T01:28:58.694Z,20.66
2023-07-24T01:29:58.676Z,20.64
2023-07-24T01:30:58.784Z,20.64
2023-07-24T01:31:58.693Z,20.61
2023-07-24T01:32:58.709Z,20.58
2023-07-24T01:33:58.634Z,20.57
2023-07-24T01:34:58.629Z,20.55
2023-07-24T01:35:58.629Z,20.52
2023-07-24T01:36:58.623Z,20.51
2023-07-24T01:37:58.599Z,20.48
2023-07-24T01:38:58.579Z,20.47
2023-07-24T01:39:58.579Z,20.48
2023-07-24T01:40:58.569Z,20.47
2023-07-24T01:41:58.552Z,20.43
2023-07-24T01:42:58.533Z,20.43
2023-07-24T01:43:58.540Z,20.43
2023-07-24T01:44:58.510Z,20.41
2023-07-24T01:45:58.539Z,20.39
2023-07-24T01:46:58.503Z,20.35
2023-07-24T01:47:58.540Z,20.35
2023-07-24T01:48:58.480Z,20.33
2023-07-24T01:49:58.473Z,20.33
2023-07-24T01:50:58.457Z,20.29
2023-07-24T01:51:58.446Z,20.28
2023-07-24T01:52:58.444Z,20.24
2023-07-24T01:53:58.429Z,20.23
2023-07-24T01:54:58.414Z,20.17
2023-07-24T01:55:58.416Z,20.14
2023-07-24T01:56:58.403Z,20.14
2023-07-24T01:57:58.392Z,20.13
2023-07-24T01:58:58.371Z,20.10
2023-07-24T01:59:58.369Z,20.06
2023-07-24T02:00:58.344Z,20.03
2023-07-24T02:01:58.438Z,20.02
2023-07-24T02:02:58.413Z,20.01
2023-07-24T02:03:58.329Z,19.99
2023-07-24T02:04:58.308Z,19.96
2023-07-24T02:05:58.293Z,19.92
2023-07-24T02:06:58.280Z,19.84
2023-07-24T02:07:58.278Z,19.78
2023-07-24T02:08:58.261Z,19.74
2023-07-24T02:09:59.057Z,19.68
2023-07-24T02:10:58.241Z,19.61
2023-07-24T02:11:58.228Z,19.55
2023-07-24T02:12:58.218Z,19.51
2023-07-24T02:13:58.988Z,19.50
2023-07-24T02:14:58.198Z,19.44
2023-07-24T02:15:58.218Z,19.39
2023-07-24T02:16:58.177Z,19.33
2023-07-24T02:17:58.194Z,19.29
2023-07-24T02:18:58.152Z,19.23
2023-07-24T02:19:58.139Z,19.18
2023-07-24T02:20:58.127Z,19.14
2023-07-24T02:21:58.126Z,19.10
2023-07-24T02:22:58.182Z,19.07
2023-07-24T02:23:58.096Z,19.07
2023-07-24T02:24:58.091Z,19.06
2023-07-24T02:25:58.072Z,19.02
2023-07-24T02:26:58.057Z,18.98
2023-07-24T02:27:58.057Z,18.94
2023-07-24T02:28:58.038Z,18.90
2023-07-24T02:29:58.054Z,18.85
2023-07-24T02:30:58.029Z,18.85
2023-07-24T02:31:58.009Z,18.82
2023-07-24T02:32:58.078Z,18.80
2023-07-24T02:33:57.984Z,18.80
2023-07-24T02:34:57.976Z,18.80
2023-07-24T02:35:57.969Z,18.80
2023-07-24T02:36:57.973Z,18.75
2023-07-24T02:37:57.933Z,18.72
2023-07-24T02:38:57.934Z,18.67
2023-07-24T02:39:57.915Z,18.65
2023-07-24T02:40:57.917Z,18.60
2023-07-24T02:41:57.901Z,18.55
2023-07-24T02:42:57.896Z,18.54
2023-07-24T02:43:57.878Z,18.48
2023-07-24T02:44:57.876Z,18.44
2023-07-24T02:45:57.900Z,18.39
2023-07-24T02:46:57.853Z,18.36
2023-07-24T02:47:57.858Z,18.36
2023-07-24T02:48:57.816Z,18.32
2023-07-24T02:49:57.813Z,18.33
2023-07-24T02:50:57.804Z,18.32
2023-07-24T02:51:57.790Z,18.32
2023-07-24T02:52:57.787Z,18.29
2023-07-24T02:53:57.767Z,18.29
2023-07-24T02:54:57.757Z,18.23
2023-07-24T02:55:57.750Z,18.21
2023-07-24T02:56:57.746Z,18.20
2023-07-24T02:57:57.733Z,18.20
2023-07-24T02:58:57.731Z,18.20
2023-07-24T02:59:57.708Z,18.23
2023-07-24T03:00:57.725Z,18.25
2023-07-24T03:01:57.679Z,18.25
2023-07-24T03:02:57.781Z,18.25
2023-07-24T03:03:57.662Z,18.26
2023-07-24T03:04:57.651Z,18.26
2023-07-24T03:05:57.656Z,18.27
2023-07-24T03:06:57.624Z,18.29
2023-07-24T03:07:57.613Z,18.27
2023-07-24T03:08:57.618Z,18.32
2023-07-24T03:09:58.438Z,18.37
2023-07-24T03:10:57.586Z,18.41
2023-07-24T03:11:57.569Z,18.47
2023-07-24T03:12:57.579Z,18.48
2023-07-24T03:13:57.667Z,18.48
2023-07-24T03:14:57.539Z,18.48
2023-07-24T03:15:57.581Z,18.48
2023-07-24T03:16:57.523Z,18.50
2023-07-24T03:17:58.345Z,18.50
2023-07-24T03:18:57.515Z,18.47
2023-07-24T03:19:57.476Z,18.44
2023-07-24T03:20:57.479Z,18.50
2023-07-24T03:21:57.461Z,18.50
2023-07-24T03:22:57.546Z,18.66
2023-07-24T03:23:57.438Z,18.72
2023-07-24T03:24:57.444Z,18.87
2023-07-24T03:25:57.418Z,18.88
2023-07-24T03:26:57.427Z,18.88
2023-07-24T03:27:57.410Z,18.94
2023-07-24T03:28:57.398Z,18.98
2023-07-24T03:29:57.377Z,19.19
2023-07-24T03:30:57.463Z,19.37
2023-07-24T03:31:57.922Z,19.47
2023-07-24T03:32:57.372Z,19.54
2023-07-24T03:33:57.346Z,19.51
2023-07-24T03:34:57.345Z,19.47
2023-07-24T03:35:57.321Z,19.41
2023-07-24T03:36:57.319Z,19.37
2023-07-24T03:37:57.305Z,19.37
2023-07-24T03:38:57.294Z,19.32
2023-07-24T03:39:57.325Z,19.29
2023-07-24T03:40:57.270Z,19.23
2023-07-24T03:41:57.272Z,19.18
2023-07-24T03:42:57.262Z,19.10
2023-07-24T03:43:57.237Z,19.07
2023-07-24T03:44:57.218Z,19.04
2023-07-24T03:45:57.213Z,19.00
2023-07-24T03:46:57.203Z,18.99
2023-07-24T03:47:57.211Z,18.98
2023-07-24T03:48:57.180Z,18.95
2023-07-24T03:49:57.871Z,18.94
2023-07-24T03:50:57.225Z,18.88
2023-07-24T03:51:57.149Z,18.82
2023-07-24T03:52:57.134Z,18.81
2023-07-24T03:53:57.127Z,18.80
2023-07-24T03:54:57.118Z,18.78
2023-07-24T03:55:57.102Z,18.75
2023-07-24T03:56:57.093Z,18.72
2023-07-24T03:57:57.079Z,18.70
2023-07-24T03:58:57.073Z,18.69
2023-07-24T03:59:57.063Z,18.72
2023-07-24T04:00:57.082Z,18.70
2023-07-24T04:01:57.041Z,18.69
2023-07-24T04:02:57.080Z,18.69
2023-07-24T04:03:57.030Z,18.66
2023-07-24T04:04:57.018Z,18.62
2023-07-24T04:05:56.986Z,18.65
2023-07-24T04:06:56.998Z,18.65
2023-07-24T04:07:56.967Z,18.65
2023-07-24T04:08:56.970Z,18.69
2023-07-24T04:09:56.953Z,18.76
2023-07-24T04:10:56.948Z,18.82
2023-07-24T04:11:56.933Z,18.91
2023-07-24T04:12:56.917Z,19.00
2023-07-24T04:13:56.901Z,19.10
2023-07-24T04:14:56.890Z,19.18
2023-07-24T04:15:56.886Z,19.23
2023-07-24T04:16:56.998Z,19.25
2023-07-24T04:17:56.880Z,19.29
2023-07-24T04:18:56.852Z,19.31
2023-07-24T04:19:56.834Z,19.33
2023-07-24T04:20:56.843Z,19.33
2023-07-24T04:21:56.838Z,19.31
2023-07-24T04:22:57.629Z,19.31
2023-07-24T04:23:56.798Z,19.29
2023-07-24T04:24:56.806Z,19.36
2023-07-24T04:25:56.777Z,19.33
2023-07-24T04:26:57.576Z,19.36
2023-07-24T04:27:57.589Z,19.40
2023-07-24T04:28:56.749Z,19.41
2023-07-24T04:29:56.738Z,19.43
2023-07-24T04:30:56.770Z,19.47
2023-07-24T04:31:56.702Z,19.55
2023-07-24T04:32:56.717Z,19.61
2023-07-24T04:33:56.686Z,19.61
2023-07-24T04:34:56.687Z,19.63
2023-07-24T04:35:56.693Z,19.63
2023-07-24T04:36:56.657Z,19.65
2023-07-24T04:37:56.638Z,19.66
2023-07-24T04:38:56.654Z,19.69
2023-07-24T04:39:56.619Z,19.69
2023-07-24T04:40:56.630Z,19.69
2023-07-24T04:41:56.600Z,19.68
2023-07-24T04:42:56.596Z,19.68
2023-07-24T04:43:56.581Z,19.76
2023-07-24T04:44:56.575Z,19.84
2023-07-24T04:45:56.576Z,19.98
2023-07-24T04:46:56.613Z,20.17
2023-07-24T04:47:56.597Z,20.31
2023-07-24T04:48:56.531Z,20.52
2023-07-24T04:49:56.725Z,20.66
2023-07-24T04:50:56.505Z,20.73
2023-07-24T04:51:56.491Z,20.84
2023-07-24T04:52:56.477Z,20.91
2023-07-24T04:53:56.472Z,21.03
2023-07-24T04:54:56.734Z,21.32
2023-07-24T04:55:56.450Z,21.54
2023-07-24T04:56:56.488Z,21.53
2023-07-24T04:57:56.423Z,21.40
2023-07-24T04:58:56.428Z,21.21
2023-07-24T04:59:56.402Z,21.01
2023-07-24T05:00:56.455Z,20.82
2023-07-24T05:01:56.444Z,20.58
2023-07-24T05:02:56.428Z,20.36
2023-07-24T05:03:56.386Z,19.99
2023-07-24T05:04:56.479Z,19.71
2023-07-24T05:05:56.399Z,19.46
2023-07-24T05:06:56.388Z,19.28
2023-07-24T05:07:56.340Z,19.19
2023-07-24T05:08:56.359Z,19.07
2023-07-24T05:09:56.430Z,19.00
2023-07-24T05:10:56.301Z,18.95
2023-07-24T05:11:56.278Z,18.87
2023-07-24T05:12:56.275Z,18.82
2023-07-24T05:13:56.251Z,18.78
2023-07-24T05:14:56.255Z,18.72
2023-07-24T05:15:56.237Z,18.70
2023-07-24T05:16:56.310Z,18.67
2023-07-24T05:17:56.259Z,18.63
2023-07-24T05:18:56.244Z,18.60
2023-07-24T05:19:56.208Z,18.62
2023-07-24T05:20:56.197Z,18.60
2023-07-24T05:21:56.173Z,18.57
2023-07-24T05:22:56.208Z,18.58
2023-07-24T05:23:56.172Z,18.58
2023-07-24T05:24:56.230Z,18.60
2023-07-24T05:25:56.142Z,18.58
2023-07-24T05:26:56.127Z,18.54
2023-07-24T05:27:56.945Z,18.57
2023-07-24T05:28:56.095Z,18.55
2023-07-24T05:29:56.097Z,18.54
2023-07-24T05:30:56.084Z,18.54
2023-07-24T05:31:56.147Z,18.52
2023-07-24T05:32:56.175Z,18.52
2023-07-24T05:33:56.071Z,18.54
2023-07-24T05:34:56.050Z,18.50
2023-07-24T05:35:56.037Z,18.50
2023-07-24T05:36:56.008Z,18.50
2023-07-24T05:37:56.007Z,18.52
2023-07-24T05:38:56.182Z,18.51
2023-07-24T05:39:55.989Z,18.52
2023-07-24T05:40:56.787Z,18.55
2023-07-24T05:41:55.986Z,18.57
2023-07-24T05:42:55.955Z,18.55
2023-07-24T05:43:55.934Z,18.60
2023-07-24T05:44:55.959Z,18.60
2023-07-24T05:45:55.967Z,18.63
2023-07-24T05:46:55.915Z,18.67
2023-07-24T05:47:55.983Z,18.66
2023-07-24T05:48:55.881Z,18.65
2023-07-24T05:49:55.873Z,18.66
2023-07-24T05:50:55.863Z,18.66
2023-07-24T05:51:55.849Z,18.69
2023-07-24T05:52:55.831Z,18.70
2023-07-24T05:53:55.819Z,18.72
2023-07-24T05:54:55.827Z,18.73
2023-07-24T05:55:55.819Z,18.73
2023-07-24T05:56:55.795Z,18.76
2023-07-24T05:57:55.807Z,18.78
2023-07-24T05:58:55.786Z,18.78
2023-07-24T05:59:55.765Z,18.82
2023-07-24T06:00:55.757Z,18.78
2023-07-24T06:01:55.801Z,18.81
2023-07-24T06:02:57.249Z,18.82
2023-07-24T06:03:55.791Z,18.84
2023-07-24T06:04:55.743Z,18.85
2023-07-24T06:05:55.713Z,18.85
2023-07-24T06:06:55.706Z,18.87
2023-07-24T06:07:55.705Z,18.85
2023-07-24T06:08:55.663Z,18.87
2023-07-24T06:09:55.648Z,18.87
2023-07-24T06:10:55.762Z,18.90
2023-07-24T06:11:55.626Z,18.91
2023-07-24T06:12:55.641Z,18.92
2023-07-24T06:13:55.678Z,19.00
2023-07-24T06:14:55.600Z,19.04
2023-07-24T06:15:55.648Z,19.14
2023-07-24T06:16:55.586Z,19.23
2023-07-24T06:17:55.634Z,19.28
2023-07-24T06:18:55.559Z,19.33
2023-07-24T06:19:55.549Z,19.40
2023-07-24T06:20:55.560Z,19.46
2023-07-24T06:21:55.520Z,19.44
2023-07-24T06:22:55.516Z,19.47
2023-07-24T06:23:55.500Z,19.43
2023-07-24T06:24:55.535Z,19.46
2023-07-24T06:25:55.487Z,19.43
2023-07-24T06:26:55.477Z,19.44
2023-07-24T06:27:55.456Z,19.39
2023-07-24T06:28:55.458Z,19.28
2023-07-24T06:29:56.091Z,19.28
2023-07-24T06:30:56.427Z,19.28
2023-07-24T06:31:55.417Z,19.33
2023-07-24T06:32:55.491Z,19.39
2023-07-24T06:33:55.401Z,19.39
2023-07-24T06:34:56.736Z,19.40
2023-07-24T06:35:55.374Z,19.51
2023-07-24T06:37:01.221Z,19.61
2023-07-24T06:37:56.366Z,19.62
2023-07-24T06:38:55.343Z,19.71
2023-07-24T06:39:55.329Z,19.77
2023-07-24T06:40:55.324Z,19.84
2023-07-24T06:41:55.330Z,19.92
2023-07-24T06:42:55.299Z,19.94
2023-07-24T06:43:55.285Z,19.94
2023-07-24T06:44:55.284Z,19.94
2023-07-24T06:45:55.307Z,19.96
2023-07-24T06:46:55.257Z,20.03
2023-07-24T06:47:55.294Z,20.08
2023-07-24T06:48:55.236Z,20.06
2023-07-24T06:49:55.228Z,20.13
2023-07-24T06:50:55.497Z,20.08
2023-07-24T06:51:55.209Z,20.05
2023-07-24T06:52:55.187Z,20.06
2023-07-24T06:53:55.197Z,20.03
2023-07-24T06:54:55.173Z,20.08
2023-07-24T06:55:55.182Z,20.11
2023-07-24T06:56:55.157Z,20.11
2023-07-24T06:57:55.146Z,20.03
2023-07-24T06:58:55.128Z,19.96
2023-07-24T06:59:55.631Z,19.92
2023-07-24T07:00:55.248Z,19.87
2023-07-24T07:01:55.104Z,19.92
2023-07-24T07:02:55.148Z,19.95
2023-07-24T07:03:55.106Z,20.02
2023-07-24T07:04:55.887Z,20.08
2023-07-24T07:05:55.059Z,20.14
2023-07-24T07:06:55.044Z,20.18
2023-07-24T07:07:55.036Z,20.23
2023-07-24T07:08:55.031Z,20.29
2023-07-24T07:09:55.012Z,20.35
2023-07-24T07:10:54.998Z,20.35
2023-07-24T07:11:55.000Z,20.47
2023-07-24T07:12:54.997Z,20.41
2023-07-24T07:13:54.987Z,20.42
2023-07-24T07:14:54.956Z,20.42
2023-07-24T07:15:55.005Z,20.38
2023-07-24T07:16:54.934Z,20.33
2023-07-24T07:17:54.950Z,20.29
2023-07-24T07:18:54.917Z,20.28
2023-07-24T07:19:54.913Z,20.17
2023-07-24T07:20:54.905Z,20.23
2023-07-24T07:21:54.880Z,20.23
2023-07-24T07:22:54.869Z,20.24
2023-07-24T07:23:54.872Z,20.26
2023-07-24T07:24:54.931Z,20.18
2023-07-24T07:25:54.843Z,20.11
2023-07-24T07:26:54.883Z,20.08
2023-07-24T07:27:55.630Z,19.98
2023-07-24T07:28:54.808Z,19.99
2023-07-24T07:29:54.819Z,19.96
2023-07-24T07:30:54.829Z,19.98
2023-07-24T07:31:54.774Z,20.01
2023-07-24T07:32:54.831Z,20.01
2023-07-24T07:33:54.763Z,20.03
2023-07-24T07:34:54.747Z,20.06
2023-07-24T07:35:55.060Z,20.08
2023-07-24T07:36:55.051Z,20.10
2023-07-24T07:37:54.708Z,20.14
2023-07-24T07:38:54.688Z,20.21
2023-07-24T07:39:54.704Z,20.23
2023-07-24T07:40:55.483Z,20.21
2023-07-24T07:42:04.367Z,20.23
2023-07-24T07:42:55.661Z,20.23
2023-07-24T07:43:54.649Z,20.26
2023-07-24T07:44:54.632Z,20.28
2023-07-24T07:45:54.625Z,20.31
2023-07-24T07:46:54.618Z,20.32
2023-07-24T07:47:54.710Z,20.32
2023-07-24T07:48:54.601Z,20.35
2023-07-24T07:49:55.393Z,20.36
2023-07-24T07:50:54.578Z,20.39
2023-07-24T07:51:54.571Z,20.39
2023-07-24T07:52:54.541Z,20.36
2023-07-24T07:53:54.702Z,20.33
2023-07-24T07:54:54.799Z,20.33
2023-07-24T07:55:54.525Z,20.36
2023-07-24T07:56:54.498Z,20.39
2023-07-24T07:57:54.499Z,20.47
2023-07-24T07:58:54.484Z,20.48
2023-07-24T07:59:54.486Z,20.52
2023-07-24T08:00:54.488Z,20.54
2023-07-24T08:01:54.461Z,20.57
2023-07-24T08:02:54.493Z,20.62
2023-07-24T08:03:54.458Z,20.69
2023-07-24T08:04:54.410Z,20.66
2023-07-24T08:05:54.416Z,20.69
2023-07-24T08:06:54.407Z,20.64
2023-07-24T08:07:54.385Z,20.69
2023-07-24T08:08:54.422Z,20.80
2023-07-24T08:09:54.367Z,20.88
2023-07-24T08:10:54.352Z,20.95
2023-07-24T08:11:54.339Z,20.97
2023-07-24T08:12:54.448Z,20.97
2023-07-24T08:13:54.316Z,21.01
2023-07-24T08:14:54.299Z,21.04
2023-07-24T08:15:54.300Z,21.10
2023-07-24T08:16:54.571Z,21.10
2023-07-24T08:17:54.420Z,21.13
2023-07-24T08:18:56.116Z,21.19
2023-07-24T08:19:54.262Z,21.27
2023-07-24T08:20:54.246Z,21.27
2023-07-24T08:21:55.050Z,21.17
2023-07-24T08:22:54.219Z,21.29
2023-07-24T08:23:54.220Z,21.32
2023-07-24T08:24:57.122Z,21.42
2023-07-24T08:25:54.190Z,21.52
2023-07-24T08:26:54.972Z,21.58
2023-07-24T08:28:04.624Z,21.68
2023-07-24T08:28:55.151Z,21.72
2023-07-24T08:29:54.170Z,21.75
2023-07-24T08:30:54.274Z,21.72
2023-07-24T08:31:54.238Z,21.72
2023-07-24T08:32:54.131Z,21.74
2023-07-24T08:33:54.099Z,21.86
2023-07-24T08:34:54.082Z,21.98
2023-07-24T08:35:54.886Z,22.00
2023-07-24T08:36:54.057Z,22.00
2023-07-24T08:37:54.087Z,22.12
2023-07-24T08:38:54.033Z,22.30
2023-07-24T08:39:54.033Z,22.43
2023-07-24T08:40:54.015Z,22.35
2023-07-24T08:41:54.025Z,22.43
2023-07-24T08:42:54.018Z,22.52
2023-07-24T08:43:53.991Z,22.64
2023-07-24T08:44:53.980Z,22.70
2023-07-24T08:45:53.975Z,22.83
2023-07-24T08:46:53.985Z,22.83
2023-07-24T08:47:53.993Z,22.76
2023-07-24T08:48:53.931Z,22.82
2023-07-24T08:49:53.927Z,22.98
2023-07-24T08:50:53.919Z,23.20
2023-07-24T08:51:53.921Z,23.22
2023-07-24T08:52:53.906Z,23.35
2023-07-24T08:53:53.892Z,23.32
2023-07-24T08:54:53.884Z,23.36
2023-07-24T08:55:53.890Z,23.36
2023-07-24T08:56:53.844Z,23.42
2023-07-24T08:57:53.846Z,23.42
2023-07-24T08:58:53.837Z,23.51
2023-07-24T08:59:53.824Z,23.50
2023-07-24T09:00:53.831Z,23.46
2023-07-24T09:01:53.796Z,23.47
2023-07-24T09:02:53.864Z,23.58
2023-07-24T09:03:54.640Z,23.53
2023-07-24T09:04:53.795Z,23.43
2023-07-24T09:05:53.756Z,23.43
2023-07-24T09:06:53.741Z,23.48
2023-07-24T09:07:53.961Z,23.55
2023-07-24T09:08:53.718Z,23.65
2023-07-24T09:09:53.722Z,23.83
2023-07-24T09:10:53.729Z,23.88
2023-07-24T09:11:53.700Z,23.91
2023-07-24T09:12:53.681Z,24.02
2023-07-24T09:13:55.454Z,24.13
2023-07-24T09:14:53.654Z,24.13
2023-07-24T09:15:53.656Z,24.30
2023-07-24T09:16:53.694Z,24.25
2023-07-24T09:17:54.626Z,24.27
2023-07-24T09:19:54.398Z,24.27
2023-07-24T09:20:53.812Z,24.32
2023-07-24T09:21:53.584Z,24.34
2023-07-24T09:23:54.566Z,24.25
2023-07-24T09:24:53.621Z,24.13
2023-07-24T09:25:53.544Z,24.15
2023-07-24T09:26:58.642Z,24.15
2023-07-24T09:27:54.530Z,24.34
2023-07-24T09:28:54.316Z,24.57
2023-07-24T09:29:53.503Z,24.62
2023-07-24T09:30:53.552Z,24.69
2023-07-24T09:31:53.489Z,24.84
2023-07-24T09:32:53.529Z,24.81
2023-07-24T09:33:53.460Z,24.98
2023-07-24T09:34:53.460Z,25.08
2023-07-24T09:35:53.449Z,24.96
2023-07-24T09:36:53.429Z,24.87
2023-07-24T09:37:53.420Z,24.69
2023-07-24T09:38:54.408Z,24.65
2023-07-24T09:39:54.052Z,24.61
2023-07-24T09:40:53.379Z,24.65
2023-07-24T09:41:53.371Z,24.69
2023-07-24T09:43:54.372Z,24.65
2023-07-24T09:44:53.337Z,24.78
2023-07-24T09:45:53.371Z,25.00
2023-07-24T09:47:58.844Z,25.21
2023-07-24T09:49:53.352Z,25.43
2023-07-24T09:50:53.282Z,25.54
2023-07-24T09:51:53.270Z,25.61
2023-07-24T09:52:53.245Z,25.64
2023-07-24T09:53:53.268Z,25.72
2023-07-24T09:54:53.236Z,25.83
2023-07-24T09:55:53.242Z,25.90
2023-07-24T09:57:00.519Z,25.95
2023-07-24T09:57:54.229Z,25.87
2023-07-24T09:58:53.992Z,25.73
2023-07-24T09:59:53.181Z,25.80
2023-07-24T10:00:53.185Z,25.98
2023-07-24T10:01:53.189Z,25.95
2023-07-24T10:02:53.188Z,25.94
2023-07-24T10:03:53.146Z,25.82
2023-07-24T10:04:53.188Z,25.57
2023-07-24T10:05:53.136Z,25.46
2023-07-24T10:06:53.108Z,25.42
2023-07-24T10:07:53.122Z,25.24
2023-07-24T10:08:53.087Z,25.20
2023-07-24T10:09:53.086Z,25.18
2023-07-24T10:10:53.076Z,25.20
2023-07-24T10:11:53.062Z,25.38
2023-07-24T10:12:53.037Z,25.42
2023-07-24T10:13:53.042Z,25.42
2023-07-24T10:14:53.024Z,25.28
2023-07-24T10:15:53.073Z,25.14
2023-07-24T10:16:52.986Z,24.98
2023-07-24T10:17:53.023Z,24.76
2023-07-24T10:18:52.981Z,24.62
2023-07-24T10:19:52.978Z,24.50
2023-07-24T10:20:52.958Z,24.46
2023-07-24T10:21:52.947Z,24.42
2023-07-24T10:22:52.921Z,24.40
2023-07-24T10:23:52.928Z,24.31
2023-07-24T10:24:52.980Z,24.28
2023-07-24T10:25:53.578Z,24.20
2023-07-24T10:26:52.888Z,24.21
2023-07-24T10:27:52.882Z,24.15
2023-07-24T10:28:52.862Z,24.22
2023-07-24T10:29:52.867Z,24.34
2023-07-24T10:30:52.869Z,24.47
2023-07-24T10:31:52.935Z,24.60
2023-07-24T10:32:55.638Z,24.67
2023-07-24T10:33:52.932Z,24.61
2023-07-24T10:34:52.816Z,24.58
2023-07-24T10:35:52.795Z,24.57
2023-07-24T10:36:52.850Z,24.49
2023-07-24T10:37:52.777Z,24.50
2023-07-24T10:38:52.775Z,24.53
2023-07-24T10:39:52.905Z,24.67
2023-07-24T10:40:52.742Z,24.77
2023-07-24T10:41:52.755Z,24.84
2023-07-24T10:42:52.755Z,24.93
2023-07-24T10:43:52.721Z,25.02
2023-07-24T10:44:52.699Z,25.03
2023-07-24T10:45:52.751Z,25.15
2023-07-24T10:46:52.696Z,25.10
2023-07-24T10:47:52.684Z,25.13
2023-07-24T10:48:52.785Z,24.99
2023-07-24T10:49:52.654Z,24.83
2023-07-24T10:50:54.316Z,24.65
2023-07-24T10:51:52.643Z,24.46
2023-07-24T10:52:52.634Z,24.35
2023-07-24T10:53:52.615Z,24.31
2023-07-24T10:54:52.598Z,24.27
2023-07-24T10:55:52.710Z,24.24
2023-07-24T10:56:52.582Z,24.12
2023-07-24T10:57:52.603Z,24.02
2023-07-24T10:58:52.564Z,23.98
2023-07-24T10:59:52.547Z,23.80
2023-07-24T11:00:52.552Z,23.70
2023-07-24T11:01:52.570Z,23.65
2023-07-24T11:02:52.548Z,23.61
2023-07-24T11:03:52.502Z,23.60
2023-07-24T11:04:52.610Z,23.60
2023-07-24T11:05:52.488Z,23.58
2023-07-24T11:06:52.478Z,23.61
2023-07-24T11:07:52.458Z,23.72
2023-07-24T11:08:52.459Z,23.84
2023-07-24T11:09:52.430Z,23.85
2023-07-24T11:10:52.425Z,23.90
2023-07-24T11:11:52.429Z,24.02
2023-07-24T11:12:52.428Z,24.10
2023-07-24T11:13:52.407Z,24.28
2023-07-24T11:14:52.395Z,24.40
2023-07-24T11:15:52.416Z,24.50
2023-07-24T11:16:52.379Z,24.61
2023-07-24T11:17:52.409Z,24.76
2023-07-24T11:18:54.989Z,24.83
2023-07-24T11:19:52.323Z,25.00
2023-07-24T11:20:52.315Z,25.09
2023-07-24T11:21:52.312Z,25.09
2023-07-24T11:22:52.314Z,25.10
2023-07-24T11:23:52.296Z,25.17
2023-07-24T11:24:52.328Z,25.20
2023-07-24T11:25:52.264Z,25.23
2023-07-24T11:26:52.264Z,25.23
2023-07-24T11:27:52.256Z,25.30
2023-07-24T11:28:52.232Z,25.08
2023-07-24T11:29:52.225Z,24.99
2023-07-24T11:30:52.248Z,25.10
2023-07-24T11:31:52.205Z,25.14
2023-07-24T11:32:52.234Z,25.10
2023-07-24T11:33:52.198Z,25.06
2023-07-24T11:34:52.184Z,25.02
2023-07-24T11:35:52.176Z,25.08
2023-07-24T11:36:52.149Z,25.15
2023-07-24T11:37:52.132Z,25.15
2023-07-24T11:38:52.132Z,25.09
2023-07-24T11:39:52.109Z,25.00
2023-07-24T11:40:52.121Z,24.88
2023-07-24T11:41:52.095Z,24.69
2023-07-24T11:42:52.083Z,24.21
2023-07-24T11:43:52.127Z,23.60
2023-07-24T11:44:52.074Z,23.22
2023-07-24T11:45:52.048Z,22.94
2023-07-24T11:46:52.068Z,22.67
2023-07-24T11:47:52.049Z,22.54
2023-07-24T11:48:52.024Z,22.58
2023-07-24T11:49:52.009Z,22.64
2023-07-24T11:50:52.018Z,22.67
2023-07-24T11:51:52.007Z,22.79
2023-07-24T11:52:51.986Z,22.97
2023-07-24T11:53:51.968Z,23.09
2023-07-24T11:54:51.961Z,23.15
2023-07-24T11:55:51.943Z,23.28
2023-07-24T11:56:51.951Z,23.22
2023-07-24T11:57:51.919Z,23.13
2023-07-24T11:58:51.927Z,23.16
2023-07-24T11:59:51.911Z,23.27
2023-07-24T12:00:51.902Z,23.33
2023-07-24T12:01:51.874Z,23.31
2023-07-24T12:02:52.052Z,23.33
2023-07-24T12:03:51.931Z,23.32
2023-07-24T12:04:51.852Z,23.33
2023-07-24T12:05:51.858Z,23.32
2023-07-24T12:06:51.827Z,23.36
2023-07-24T12:07:51.828Z,23.31
2023-07-24T12:08:51.826Z,23.19
2023-07-24T12:09:51.792Z,23.20
2023-07-24T12:10:51.835Z,23.25
2023-07-24T12:11:51.772Z,23.35
2023-07-24T12:12:51.766Z,23.51
2023-07-24T12:13:51.834Z,23.65
2023-07-24T12:14:53.114Z,23.84
2023-07-24T12:15:51.742Z,23.85
2023-07-24T12:16:51.727Z,23.88
2023-07-24T12:17:51.851Z,23.97
2023-07-24T12:18:51.726Z,24.06
2023-07-24T12:19:51.689Z,24.15
2023-07-24T12:20:51.695Z,24.21
2023-07-24T12:21:52.488Z,24.37
2023-07-24T12:22:51.691Z,24.67
2023-07-24T12:23:51.656Z,24.96
2023-07-24T12:24:51.660Z,25.36
2023-07-24T12:25:52.053Z,25.90
2023-07-24T12:26:51.619Z,25.98
2023-07-24T12:27:51.613Z,25.88
2023-07-24T12:28:51.600Z,25.65
2023-07-24T12:29:51.605Z,25.57
2023-07-24T12:30:51.589Z,25.47
2023-07-24T12:31:51.561Z,25.60
2023-07-24T12:32:51.585Z,25.67
2023-07-24T12:33:51.553Z,25.99
2023-07-24T12:34:51.540Z,25.72
2023-07-24T12:35:51.519Z,25.90
2023-07-24T12:36:51.523Z,25.83
2023-07-24T12:37:51.506Z,25.67
2023-07-24T12:38:51.495Z,25.54
2023-07-24T12:39:51.488Z,25.61
2023-07-24T12:40:51.475Z,25.51
2023-07-24T12:41:51.461Z,25.39
2023-07-24T12:42:51.483Z,25.62
2023-07-24T12:43:51.440Z,25.79
2023-07-24T12:44:51.429Z,26.09
2023-07-24T12:45:51.423Z,26.36
2023-07-24T12:46:51.461Z,26.55
2023-07-24T12:47:51.454Z,26.67
2023-07-24T12:48:51.691Z,26.76
2023-07-24T12:49:51.375Z,26.94
2023-07-24T12:50:51.384Z,27.19
2023-07-24T12:51:51.350Z,27.21
2023-07-24T12:52:51.541Z,27.27
2023-07-24T12:54:00.553Z,27.49
2023-07-24T12:55:00.954Z,27.66
2023-07-24T12:55:52.316Z,27.79
2023-07-24T12:56:51.353Z,28.02